»·PEaware :: TEXAN22 KRND-KRND

TEXAN22 :: KRND-KRND

FLIGHT INFORMATION

Flight Status: Arrived
Operator: Unknown
More flights by this operator :: More flights under this callsign
Pilot: Indie I. (23343)
Aircraft: BEECH AIRCRAFT T-6A TEXAN
(TEX2)
More flights by this aircraft type
Origin: KRND Randolph AFB
United States
Destination: KRND Randolph AFB
United States
More flights between these airports :: More routes between these airports
Route: SR-286
File this flight plan on PilotEdge
Remarks:
Altitude:
(Current/Filed)
3,500ft
Speed:
(Current/Filed)
210kts
Departed: 04-May-20 11:56 AM
Arrived: 04-May-20 01:05 PM
Distance/Time
Traveled:
1nm/1:09
Distance/Time
To Go:
Arrived

Flight Plot

Page will automatically refresh every two minutes.

Flight plan parsing failed; only flown route is shown


Map Options




Map Legend


Flown Route
Filed Route
Departure Airport
Arrival Airport
Navaid (VOR, NDB)
Fix

Horizontal Profiles

Position Reports

Time Latitude Longitude Heading Altitude Ground
Speed
04-May-20 11:50 29.534980 -98.290258 234 765ft 0kts
04-May-20 11:51 29.534979 -98.290260 234 765ft 0kts
04-May-20 11:52 29.534977 -98.290263 234 765ft 0kts
04-May-20 11:53 29.534860 -98.291226 264 765ft 0kts
04-May-20 11:54 29.534753 -98.292277 263 765ft 8kts
04-May-20 11:55 29.516240 -98.281044 152 1198ft 171kts
04-May-20 11:56 29.513036 -98.314088 329 1889ft 217kts
04-May-20 11:57 29.565932 -98.349035 332 1828ft 215kts
04-May-20 11:58 29.618199 -98.382954 330 1783ft 214kts
04-May-20 11:59 29.673665 -98.399047 0 1910ft 209kts
04-May-20 12:00 29.729038 -98.385160 27 2564ft 212kts
04-May-20 12:01 29.785743 -98.351749 26 3375ft 258kts
04-May-20 12:03 29.850476 -98.314042 21 3326ft 259kts
04-May-20 12:04 29.916721 -98.293464 5 3485ft 236kts
04-May-20 12:05 29.982395 -98.283467 7 3427ft 241kts
04-May-20 12:06 30.046052 -98.270278 13 3869ft 233kts
04-May-20 12:07 30.112576 -98.262538 5 3625ft 245kts
04-May-20 12:08 30.180604 -98.254202 8 3430ft 243kts
04-May-20 12:09 30.246900 -98.242399 7 3421ft 241kts
04-May-20 12:10 30.313565 -98.235073 5 3373ft 241kts
04-May-20 12:11 30.376707 -98.223419 14 4057ft 229kts
04-May-20 12:12 30.442563 -98.212352 5 3833ft 240kts
04-May-20 12:13 30.509821 -98.206488 357 3702ft 238kts
04-May-20 12:14 30.543855 -98.196491 35 1755ft 180kts
04-May-20 12:15 30.543855 -98.196491 35 1755ft 180kts
04-May-20 12:16 30.547174 -98.194003 27 1641ft 181kts
04-May-20 12:17 30.547174 -98.194003 27 1641ft 181kts
04-May-20 12:18 30.566550 -98.176624 22 1203ft 176kts
04-May-20 12:18 30.603950 -98.158360 23 2056ft 170kts
04-May-20 12:20 30.667452 -98.123365 28 2448ft 226kts
04-May-20 12:21 30.723383 -98.095461 22 2147ft 219kts
04-May-20 12:21 30.769429 -98.071910 23 2116ft 207kts
04-May-20 12:22 30.802281 -98.028112 98 1832ft 216kts
04-May-20 12:23 30.800597 -97.959150 88 1939ft 211kts
04-May-20 12:24 30.800357 -97.889481 96 1703ft 219kts
04-May-20 12:25 30.800391 -97.819427 91 1550ft 216kts
04-May-20 12:26 30.802689 -97.751298 88 1552ft 202kts
04-May-20 12:27 30.802935 -97.685432 90 1553ft 207kts
04-May-20 12:28 30.803384 -97.618188 88 1741ft 210kts
04-May-20 12:29 30.805445 -97.549508 89 1892ft 208kts
04-May-20 12:30 30.806682 -97.478779 87 1649ft 216kts
04-May-20 12:31 30.808852 -97.409207 94 1706ft 209kts
04-May-20 12:32 30.808331 -97.340498 89 1482ft 218kts
04-May-20 12:33 30.809248 -97.270406 88 1254ft 219kts
04-May-20 12:34 30.768897 -97.246101 183 937ft 213kts
04-May-20 12:35 30.712227 -97.248154 185 1110ft 191kts
04-May-20 12:36 30.657587 -97.251496 182 1098ft 203kts
04-May-20 12:37 30.601254 -97.250536 175 1270ft 205kts
04-May-20 12:38 30.544112 -97.255400 186 1357ft 215kts
04-May-20 12:39 30.483521 -97.256605 186 1415ft 207kts
04-May-20 12:40 30.427857 -97.259786 182 1009ft 196kts
04-May-20 12:41 30.376404 -97.262487 182 1102ft 183kts
04-May-20 12:42 30.318944 -97.265536 184 1192ft 214kts
04-May-20 12:43 30.260152 -97.270013 187 1158ft 213kts
04-May-20 12:44 30.200559 -97.274188 179 1175ft 212kts
04-May-20 12:45 30.146691 -97.290365 230 1660ft 204kts
04-May-20 12:46 30.113553 -97.344010 236 4312ft 212kts
04-May-20 12:47 30.080910 -97.404166 240 5424ft 221kts
04-May-20 12:48 30.046273 -97.474442 240 4854ft 258kts
04-May-20 12:49 30.014906 -97.547212 238 5373ft 261kts
04-May-20 12:50 29.975327 -97.620729 235 4956ft 277kts
04-May-20 12:51 29.936027 -97.690391 234 4492ft 233kts
04-May-20 12:52 29.901530 -97.752387 236 4540ft 219kts
04-May-20 12:53 29.868762 -97.809897 236 4730ft 218kts
04-May-20 12:54 29.834477 -97.868008 229 5013ft 207kts
04-May-20 12:55 29.785734 -97.914837 212 3911ft 238kts
04-May-20 12:56 29.735066 -97.958296 223 4472ft 257kts
04-May-20 12:57 29.676829 -98.008184 233 4542ft 258kts
04-May-20 12:58 29.645458 -98.080588 245 4585ft 244kts
04-May-20 12:59 29.613209 -98.145722 234 4214ft 262kts
04-May-20 13:00 29.583136 -98.216736 245 3717ft 230kts
04-May-20 13:01 29.557367 -98.272235 243 3635ft 139kts
04-May-20 13:02 29.527664 -98.289970 168 3505ft 131kts
04-May-20 13:03 29.535102 -98.303089 58 1621ft 131kts
04-May-20 13:04 29.522339 -98.284466 106 765ft 14kts

Navigation Log

Ident Type
Flight plan parsing failed, navigation log unavailable